sensor_id;sensor_type;location;lat;lon;timestamp;pressure;altitude;pressure_sealevel;temperature;humidity
25658;BME280;13517;59.320;18.042;2023-11-21T00:01:26;101408.81;;;-0.37;100.00
25658;BME280;13517;59.320;18.042;2023-11-21T00:03:52;101386.84;;;-0.56;100.00
25658;BME280;13517;59.320;18.042;2023-11-21T00:06:20;101418.53;;;-0.34;100.00
25658;BME280;13517;59.320;18.042;2023-11-21T00:08:46;101409.75;;;-0.46;100.00
25658;BME280;13517;59.320;18.042;2023-11-21T00:11:11;101342.78;;;-0.82;100.00
25658;BME280;13517;59.320;18.042;2023-11-21T00:13:36;101393.00;;;-0.54;100.00
25658;BME280;13517;59.320;18.042;2023-11-21T00:16:03;101411.47;;;-0.37;100.00
25658;BME280;13517;59.320;18.042;2023-11-21T00:18:29;101431.75;;;-0.28;100.00
25658;BME280;13517;59.320;18.042;2023-11-21T00:20:55;101390.31;;;-0.51;100.00
25658;BME280;13517;59.320;18.042;2023-11-21T00:23:20;101337.50;;;-0.82;100.00
25658;BME280;13517;59.320;18.042;2023-11-21T00:25:45;101409.66;;;-0.36;100.00
25658;BME280;13517;59.320;18.042;2023-11-21T00:28:11;101439.69;;;-0.25;100.00
25658;BME280;13517;59.320;18.042;2023-11-21T00:30:36;101400.03;;;-0.50;100.00
25658;BME280;13517;59.320;18.042;2023-11-21T00:33:02;101377.13;;;-0.60;100.00
25658;BME280;13517;59.320;18.042;2023-11-21T00:35:27;101397.41;;;-0.53;100.00
25658;BME280;13517;59.320;18.042;2023-11-21T00:37:52;101413.25;;;-0.44;100.00
25658;BME280;13517;59.320;18.042;2023-11-21T00:40:18;101430.09;;;-0.42;100.00
25658;BME280;13517;59.320;18.042;2023-11-21T00:42:47;101446.75;;;-0.25;100.00
25658;BME280;13517;59.320;18.042;2023-11-21T00:45:12;101438.81;;;-0.27;100.00
25658;BME280;13517;59.320;18.042;2023-11-21T00:47:38;101406.28;;;-0.54;100.00
25658;BME280;13517;59.320;18.042;2023-11-21T00:50:04;101402.72;;;-0.53;100.00
25658;BME280;13517;59.320;18.042;2023-11-21T00:52:31;101348.09;;;-0.80;100.00
25658;BME280;13517;59.320;18.042;2023-11-21T00:54:57;101399.16;;;-0.52;100.00
25658;BME280;13517;59.320;18.042;2023-11-21T00:57:24;101366.59;;;-0.70;100.00
25658;BME280;13517;59.320;18.042;2023-11-21T00:59:50;101369.22;;;-0.65;100.00
25658;BME280;13517;59.320;18.042;2023-11-21T01:02:15;101446.75;;;-0.22;100.00
25658;BME280;13517;59.320;18.042;2023-11-21T01:04:40;101450.25;;;-0.22;100.00
25658;BME280;13517;59.320;18.042;2023-11-21T01:07:06;101392.97;;;-0.51;100.00
25658;BME280;13517;59.320;18.042;2023-11-21T01:09:31;101448.50;;;-0.20;100.00
25658;BME280;13517;59.320;18.042;2023-11-21T01:11:57;101423.84;;;-0.37;100.00
25658;BME280;13517;59.320;18.042;2023-11-21T01:14:22;101428.25;;;-0.33;100.00
25658;BME280;13517;59.320;18.042;2023-11-21T01:16:47;101459.06;;;-0.13;100.00
25658;BME280;13517;59.320;18.042;2023-11-21T01:19:14;101377.97;;;-0.58;100.00
25658;BME280;13517;59.320;18.042;2023-11-21T01:21:39;101463.50;;;-0.16;100.00
25658;BME280;13517;59.320;18.042;2023-11-21T01:24:05;101363.94;;;-0.73;100.00
25658;BME280;13517;59.320;18.042;2023-11-21T01:26:33;101365.75;;;-0.76;100.00
25658;BME280;13517;59.320;18.042;2023-11-21T01:28:58;101467.94;;;-0.16;100.00
25658;BME280;13517;59.320;18.042;2023-11-21T01:31:24;101472.34;;;-0.18;100.00
25658;BME280;13517;59.320;18.042;2023-11-21T01:33:52;101389.56;;;-0.67;100.00
25658;BME280;13517;59.320;18.042;2023-11-21T01:36:18;101439.81;;;-0.44;100.00
25658;BME280;13517;59.320;18.042;2023-11-21T01:38:43;101479.44;;;-0.16;100.00
25658;BME280;13517;59.320;18.042;2023-11-21T01:41:08;101467.97;;;-0.22;100.00
25658;BME280;13517;59.320;18.042;2023-11-21T01:43:36;101486.50;;;-0.15;100.00
25658;BME280;13517;59.320;18.042;2023-11-21T01:46:02;101399.25;;;-0.64;100.00
25658;BME280;13517;59.320;18.042;2023-11-21T01:48:28;101486.53;;;-0.16;100.00
25658;BME280;13517;59.320;18.042;2023-11-21T01:50:54;101485.63;;;-0.15;100.00
25658;BME280;13517;59.320;18.042;2023-11-21T01:53:20;101447.72;;;-0.37;100.00
25658;BME280;13517;59.320;18.042;2023-11-21T01:55:46;101464.53;;;-0.32;100.00
25658;BME280;13517;59.320;18.042;2023-11-21T01:58:11;101499.78;;;-0.13;100.00
25658;BME280;13517;59.320;18.042;2023-11-21T02:00:38;101460.16;;;-0.39;100.00
25658;BME280;13517;59.320;18.042;2023-11-21T02:03:03;101483.97;;;-0.29;100.00
25658;BME280;13517;59.320;18.042;2023-11-21T02:05:29;101477.78;;;-0.32;100.00
25658;BME280;13517;59.320;18.042;2023-11-21T02:07:54;101512.19;;;-0.15;100.00
25658;BME280;13517;59.320;18.042;2023-11-21T02:10:20;101514.84;;;-0.17;100.00
25658;BME280;13517;59.320;18.042;2023-11-21T02:12:49;101417.91;;;-0.71;100.00
25658;BME280;13517;59.320;18.042;2023-11-21T02:15:18;101500.69;;;-0.16;100.00
25658;BME280;13517;59.320;18.042;2023-11-21T02:17:47;101513.06;;;-0.15;100.00
25658;BME280;13517;59.320;18.042;2023-11-21T02:20:16;101475.13;;;-0.34;100.00
25658;BME280;13517;59.320;18.042;2023-11-21T02:22:44;101488.38;;;-0.26;100.00
25658;BME280;13517;59.320;18.042;2023-11-21T02:25:10;101511.28;;;-0.16;100.00
25658;BME280;13517;59.320;18.042;2023-11-21T02:27:36;101518.38;;;-0.13;100.00
25658;BME280;13517;59.320;18.042;2023-11-21T02:30:03;101514.00;;;-0.19;100.00
25658;BME280;13517;59.320;18.042;2023-11-21T02:32:29;101521.97;;;-0.20;100.00
25658;BME280;13517;59.320;18.042;2023-11-21T02:34:56;101473.50;;;-0.50;100.00
25658;BME280;13517;59.320;18.042;2023-11-21T02:37:26;101448.81;;;-0.66;100.00
25658;BME280;13517;59.320;18.042;2023-11-21T02:39:51;101479.66;;;-0.47;100.00
25658;BME280;13517;59.320;18.042;2023-11-21T02:42:18;101539.69;;;-0.21;100.00
25658;BME280;13517;59.320;18.042;2023-11-21T02:44:43;101505.25;;;-0.32;100.00
25658;BME280;13517;59.320;18.042;2023-11-21T02:47:09;101529.97;;;-0.23;100.00
25658;BME280;13517;59.320;18.042;2023-11-21T02:49:35;101472.63;;;-0.57;100.00
25658;BME280;13517;59.320;18.042;2023-11-21T02:52:01;101467.38;;;-0.63;100.00
25658;BME280;13517;59.320;18.042;2023-11-21T02:54:26;101472.66;;;-0.60;100.00
25658;BME280;13517;59.320;18.042;2023-11-21T02:56:52;101541.47;;;-0.26;100.00
25658;BME280;13517;59.320;18.042;2023-11-21T02:59:18;101444.50;;;-0.86;100.00
25658;BME280;13517;59.320;18.042;2023-11-21T03:01:45;101537.97;;;-0.31;100.00
25658;BME280;13517;59.320;18.042;2023-11-21T03:04:10;101435.69;;;-0.87;100.00
25658;BME280;13517;59.320;18.042;2023-11-21T03:06:36;101512.44;;;-0.52;100.00
25658;BME280;13517;59.320;18.042;2023-11-21T03:09:01;101493.00;;;-0.56;100.00
25658;BME280;13517;59.320;18.042;2023-11-21T03:11:27;101536.22;;;-0.32;100.00
25658;BME280;13517;59.320;18.042;2023-11-21T03:13:52;101524.75;;;-0.39;100.00
25658;BME280;13517;59.320;18.042;2023-11-21T03:16:18;101522.09;;;-0.44;100.00
25658;BME280;13517;59.320;18.042;2023-11-21T03:18:44;101558.25;;;-0.16;100.00
25658;BME280;13517;59.320;18.042;2023-11-21T03:21:09;101559.09;;;-0.14;100.00
25658;BME280;13517;59.320;18.042;2023-11-21T03:23:36;101568.81;;;-0.11;100.00
25658;BME280;13517;59.320;18.042;2023-11-21T03:26:02;101575.00;;;-0.09;100.00
25658;BME280;13517;59.320;18.042;2023-11-21T03:28:27;101577.66;;;-0.09;100.00
25658;BME280;13517;59.320;18.042;2023-11-21T03:30:54;101586.50;;;-0.07;100.00
25658;BME280;13517;59.320;18.042;2023-11-21T03:33:19;101560.03;;;-0.20;100.00
25658;BME280;13517;59.320;18.042;2023-11-21T03:35:45;101527.44;;;-0.45;100.00
25658;BME280;13517;59.320;18.042;2023-11-21T03:38:11;101578.63;;;-0.20;100.00
25658;BME280;13517;59.320;18.042;2023-11-21T03:40:37;101573.31;;;-0.20;100.00
25658;BME280;13517;59.320;18.042;2023-11-21T03:43:04;101549.47;;;-0.32;100.00
25658;BME280;13517;59.320;18.042;2023-11-21T03:45:30;101598.00;;;-0.08;100.00
25658;BME280;13517;59.320;18.042;2023-11-21T03:47:55;101500.97;;;-0.59;100.00
25658;BME280;13517;59.320;18.042;2023-11-21T03:50:21;101539.81;;;-0.46;100.00
25658;BME280;13517;59.320;18.042;2023-11-21T03:52:46;101583.91;;;-0.17;100.00
25658;BME280;13517;59.320;18.042;2023-11-21T03:55:12;101544.22;;;-0.38;100.00
25658;BME280;13517;59.320;18.042;2023-11-21T03:57:37;101530.97;;;-0.45;100.00
25658;BME280;13517;59.320;18.042;2023-11-21T04:00:03;101528.31;;;-0.45;100.00
25658;BME280;13517;59.320;18.042;2023-11-21T04:02:34;101614.75;;;0.06;100.00
25658;BME280;13517;59.320;18.042;2023-11-21T04:04:59;101542.44;;;-0.38;100.00
25658;BME280;13517;59.320;18.042;2023-11-21T04:07:25;101571.50;;;-0.15;100.00
25658;BME280;13517;59.320;18.042;2023-11-21T04:09:50;101575.03;;;-0.14;100.00
25658;BME280;13517;59.320;18.042;2023-11-21T04:12:15;101582.09;;;-0.13;100.00
25658;BME280;13517;59.320;18.042;2023-11-21T04:14:41;101554.75;;;-0.29;100.00
25658;BME280;13517;59.320;18.042;2023-11-21T04:17:06;101631.50;;;0.18;100.00
25658;BME280;13517;59.320;18.042;2023-11-21T04:19:32;101543.25;;;-0.25;100.00
25658;BME280;13517;59.320;18.042;2023-11-21T04:21:57;101620.88;;;0.18;100.00
25658;BME280;13517;59.320;18.042;2023-11-21T04:24:23;101597.06;;;0.04;100.00
25658;BME280;13517;59.320;18.042;2023-11-21T04:26:48;101585.59;;;0.00;100.00
25658;BME280;13517;59.320;18.042;2023-11-21T04:29:13;101609.38;;;0.16;100.00
25658;BME280;13517;59.320;18.042;2023-11-21T04:31:39;101543.25;;;-0.25;100.00
25658;BME280;13517;59.320;18.042;2023-11-21T04:34:04;101545.03;;;-0.27;100.00
25658;BME280;13517;59.320;18.042;2023-11-21T04:36:30;101555.63;;;-0.21;100.00
25658;BME280;13517;59.320;18.042;2023-11-21T04:39:00;101635.00;;;0.29;100.00
25658;BME280;13517;59.320;18.042;2023-11-21T04:41:25;101620.03;;;0.16;100.00
25658;BME280;13517;59.320;18.042;2023-11-21T04:43:50;101645.63;;;0.26;100.00
25658;BME280;13517;59.320;18.042;2023-11-21T04:46:16;101592.66;;;-0.02;100.00
25658;BME280;13517;59.320;18.042;2023-11-21T04:48:41;101603.25;;;0.04;100.00
25658;BME280;13517;59.320;18.042;2023-11-21T04:51:07;101657.97;;;0.32;100.00
25658;BME280;13517;59.320;18.042;2023-11-21T04:53:32;101646.47;;;0.33;100.00
25658;BME280;13517;59.320;18.042;2023-11-21T04:55:57;101651.75;;;0.34;100.00
25658;BME280;13517;59.320;18.042;2023-11-21T04:58:24;101642.06;;;0.29;100.00
25658;BME280;13517;59.320;18.042;2023-11-21T05:00:49;101614.75;;;0.11;100.00
25658;BME280;13517;59.320;18.042;2023-11-21T05:03:15;101643.81;;;0.30;100.00
25658;BME280;13517;59.320;18.042;2023-11-21T05:05:40;101641.25;;;0.19;100.00
25658;BME280;13517;59.320;18.042;2023-11-21T05:08:05;101608.63;;;-0.08;100.00
25658;BME280;13517;59.320;18.042;2023-11-21T05:10:31;101600.69;;;-0.13;100.00
25658;BME280;13517;59.320;18.042;2023-11-21T05:12:56;101566.31;;;-0.36;100.00
25658;BME280;13517;59.320;18.042;2023-11-21T05:15:22;101649.25;;;0.12;100.00
25658;BME280;13517;59.320;18.042;2023-11-21T05:17:48;101677.47;;;0.31;100.00
25658;BME280;13517;59.320;18.042;2023-11-21T05:20:15;101641.38;;;0.00;100.00
25658;BME280;13517;59.320;18.042;2023-11-21T05:22:49;101651.94;;;0.11;100.00
25658;BME280;13517;59.320;18.042;2023-11-21T05:25:15;101635.16;;;0.01;100.00
25658;BME280;13517;59.320;18.042;2023-11-21T05:27:43;101627.16;;;0.03;100.00
25658;BME280;13517;59.320;18.042;2023-11-21T05:30:09;101617.47;;;0.00;100.00
25658;BME280;13517;59.320;18.042;2023-11-21T05:32:37;101672.22;;;0.23;100.00
25658;BME280;13517;59.320;18.042;2023-11-21T05:35:03;101605.97;;;-0.08;100.00
25658;BME280;13517;59.320;18.042;2023-11-21T05:37:29;101693.38;;;0.38;100.00
25658;BME280;13517;59.320;18.042;2023-11-21T05:39:55;101694.25;;;0.39;100.00
25658;BME280;13517;59.320;18.042;2023-11-21T05:42:22;101635.06;;;0.13;100.00
25658;BME280;13517;59.320;18.042;2023-11-21T05:44:48;101711.97;;;0.42;100.00
25658;BME280;13517;59.320;18.042;2023-11-21T05:47:14;101663.41;;;0.18;100.00
25658;BME280;13517;59.320;18.042;2023-11-21T05:49:39;101695.16;;;0.39;100.00
25658;BME280;13517;59.320;18.042;2023-11-21T05:52:05;101670.47;;;0.20;100.00
25658;BME280;13517;59.320;18.042;2023-11-21T05:54:30;101699.56;;;0.40;100.00
25658;BME280;13517;59.320;18.042;2023-11-21T05:56:56;101651.91;;;0.14;100.00
25658;BME280;13517;59.320;18.042;2023-11-21T05:59:21;101657.19;;;0.17;100.00
25658;BME280;13517;59.320;18.042;2023-11-21T06:01:47;101695.16;;;0.41;100.00
25658;BME280;13517;59.320;18.042;2023-11-21T06:04:13;101644.78;;;0.16;100.00
25658;BME280;13517;59.320;18.042;2023-11-21T06:06:38;101645.72;;;0.09;100.00
25658;BME280;13517;59.320;18.042;2023-11-21T06:09:04;101705.78;;;0.43;100.00
25658;BME280;13517;59.320;18.042;2023-11-21T06:11:32;101625.44;;;-0.05;100.00
25658;BME280;13517;59.320;18.042;2023-11-21T06:13:57;101704.03;;;0.38;100.00
25658;BME280;13517;59.320;18.042;2023-11-21T06:16:23;101681.94;;;0.29;100.00
25658;BME280;13517;59.320;18.042;2023-11-21T06:18:49;101732.31;;;0.53;100.00
25658;BME280;13517;59.320;18.042;2023-11-21T06:21:15;101697.00;;;0.25;100.00
25658;BME280;13517;59.320;18.042;2023-11-21T06:23:42;101724.41;;;0.39;100.00
25658;BME280;13517;59.320;18.042;2023-11-21T06:26:07;101719.13;;;0.36;100.00
25658;BME280;13517;59.320;18.042;2023-11-21T06:28:34;101705.00;;;0.25;100.00
25658;BME280;13517;59.320;18.042;2023-11-21T06:31:01;101652.03;;;-0.06;100.00
25658;BME280;13517;59.320;18.042;2023-11-21T06:33:33;101667.06;;;0.01;100.00
25658;BME280;13517;59.320;18.042;2023-11-21T06:35:59;101729.75;;;0.33;100.00
25658;BME280;13517;59.320;18.042;2023-11-21T06:38:27;101756.28;;;0.43;100.00
25658;BME280;13517;59.320;18.042;2023-11-21T06:40:55;101732.44;;;0.30;100.00
25658;BME280;13517;59.320;18.042;2023-11-21T06:43:20;101707.72;;;0.16;100.00
25658;BME280;13517;59.320;18.042;2023-11-21T06:45:47;101740.38;;;0.32;100.00
25658;BME280;13517;59.320;18.042;2023-11-21T06:48:12;101721.84;;;0.24;100.00
25658;BME280;13517;59.320;18.042;2023-11-21T06:50:38;101753.66;;;0.32;100.00
25658;BME280;13517;59.320;18.042;2023-11-21T06:53:03;101773.97;;;0.45;100.00
25658;BME280;13517;59.320;18.042;2023-11-21T06:55:32;101769.63;;;0.36;100.00
25658;BME280;13517;59.320;18.042;2023-11-21T06:57:57;101751.91;;;0.32;100.00
25658;BME280;13517;59.320;18.042;2023-11-21T07:00:23;101782.81;;;0.52;100.00
25658;BME280;13517;59.320;18.042;2023-11-21T07:02:48;101750.16;;;0.33;100.00
25658;BME280;13517;59.320;18.042;2023-11-21T07:05:14;101760.78;;;0.31;100.00
25658;BME280;13517;59.320;18.042;2023-11-21T07:07:40;101746.66;;;0.20;100.00
25658;BME280;13517;59.320;18.042;2023-11-21T07:10:06;101760.78;;;0.28;100.00
25658;BME280;13517;59.320;18.042;2023-11-21T07:12:33;101801.44;;;0.52;100.00
25658;BME280;13517;59.320;18.042;2023-11-21T07:14:59;101805.03;;;0.46;100.00
25658;BME280;13517;59.320;18.042;2023-11-21T07:17:25;101766.16;;;0.22;100.00
25658;BME280;13517;59.320;18.042;2023-11-21T07:19:50;101805.84;;;0.53;100.00
25658;BME280;13517;59.320;18.042;2023-11-21T07:22:16;101769.69;;;0.24;100.00
25658;BME280;13517;59.320;18.042;2023-11-21T07:24:48;101789.09;;;0.38;100.00
25658;BME280;13517;59.320;18.042;2023-11-21T07:27:15;101794.34;;;0.48;100.00
25658;BME280;13517;59.320;18.042;2023-11-21T07:29:40;101727.22;;;0.08;100.00
25658;BME280;13517;59.320;18.042;2023-11-21T07:32:06;101786.41;;;0.45;100.00
25658;BME280;13517;59.320;18.042;2023-11-21T07:34:31;101804.97;;;0.52;100.00
25658;BME280;13517;59.320;18.042;2023-11-21T07:36:57;101751.03;;;0.30;100.00
25658;BME280;13517;59.320;18.042;2023-11-21T07:39:22;101747.47;;;0.30;100.00
25658;BME280;13517;59.320;18.042;2023-11-21T07:41:47;101821.69;;;0.73;100.00
25658;BME280;13517;59.320;18.042;2023-11-21T07:44:19;101751.06;;;0.24;100.00
25658;BME280;13517;59.320;18.042;2023-11-21T07:46:45;101798.78;;;0.49;100.00
25658;BME280;13517;59.320;18.042;2023-11-21T07:49:10;101795.28;;;0.40;100.00
25658;BME280;13517;59.320;18.042;2023-11-21T07:51:36;101830.66;;;0.58;100.00
25658;BME280;13517;59.320;18.042;2023-11-21T07:54:01;101760.88;;;0.06;100.00
25658;BME280;13517;59.320;18.042;2023-11-21T07:56:27;101855.50;;;0.48;100.00
25658;BME280;13517;59.320;18.042;2023-11-21T07:58:52;101798.00;;;0.25;100.00
25658;BME280;13517;59.320;18.042;2023-11-21T08:01:18;101760.88;;;0.11;100.00
25658;BME280;13517;59.320;18.042;2023-11-21T08:03:44;101784.72;;;0.25;100.00
25658;BME280;13517;59.320;18.042;2023-11-21T08:06:09;101798.84;;;0.33;100.00
25658;BME280;13517;59.320;18.042;2023-11-21T08:08:35;101843.97;;;0.50;100.00
25658;BME280;13517;59.320;18.042;2023-11-21T08:11:01;101829.84;;;0.44;100.00
25658;BME280;13517;59.320;18.042;2023-11-21T08:13:28;101723.78;;;-0.22;100.00
25658;BME280;13517;59.320;18.042;2023-11-21T08:15:54;101844.88;;;0.42;100.00
25658;BME280;13517;59.320;18.042;2023-11-21T08:18:21;101860.84;;;0.46;100.00
25658;BME280;13517;59.320;18.042;2023-11-21T08:20:48;101863.50;;;0.42;100.00
25658;BME280;13517;59.320;18.042;2023-11-21T08:23:17;101829.94;;;0.19;100.00
25658;BME280;13517;59.320;18.042;2023-11-21T08:25:44;101863.50;;;0.46;100.00
25658;BME280;13517;59.320;18.042;2023-11-21T08:28:09;101829.91;;;0.26;100.00
25658;BME280;13517;59.320;18.042;2023-11-21T08:30:35;101821.09;;;0.12;100.00
25658;BME280;13517;59.320;18.042;2023-11-21T08:33:01;101852.03;;;0.29;100.00
25658;BME280;13517;59.320;18.042;2023-11-21T08:35:28;101836.16;;;0.15;100.00
25658;BME280;13517;59.320;18.042;2023-11-21T08:37:53;101852.06;;;0.24;100.00
25658;BME280;13517;59.320;18.042;2023-11-21T08:40:19;101859.13;;;0.28;100.00
25658;BME280;13517;59.320;18.042;2023-11-21T08:42:46;101860.06;;;0.18;100.00
25658;BME280;13517;59.320;18.042;2023-11-21T08:45:12;101845.91;;;0.09;100.00
25658;BME280;13517;59.320;18.042;2023-11-21T08:47:38;101846.81;;;0.04;100.00
25658;BME280;13517;59.320;18.042;2023-11-21T08:50:06;101874.22;;;0.29;100.00
25658;BME280;13517;59.320;18.042;2023-11-21T08:52:35;101792.84;;;-0.22;100.00
25658;BME280;13517;59.320;18.042;2023-11-21T08:55:02;101895.47;;;0.26;100.00
25658;BME280;13517;59.320;18.042;2023-11-21T08:57:36;101922.03;;;0.26;100.00
25658;BME280;13517;59.320;18.042;2023-11-21T09:00:03;101899.00;;;0.25;100.00
25658;BME280;13517;59.320;18.042;2023-11-21T09:02:32;101907.00;;;0.19;100.00
25658;BME280;13517;59.320;18.042;2023-11-21T09:04:59;101865.44;;;-0.04;100.00
25658;BME280;13517;59.320;18.042;2023-11-21T09:07:24;101867.22;;;-0.06;100.00
25658;BME280;13517;59.320;18.042;2023-11-21T09:09:50;101845.06;;;-0.15;100.00
25658;BME280;13517;59.320;18.042;2023-11-21T09:12:16;101869.84;;;-0.02;100.00
25658;BME280;13517;59.320;18.042;2023-11-21T09:14:42;101927.34;;;0.26;100.00
25658;BME280;13517;59.320;18.042;2023-11-21T09:17:09;101926.44;;;0.33;100.00
25658;BME280;13517;59.320;18.042;2023-11-21T09:19:38;101854.78;;;-0.01;100.00
25658;BME280;13517;59.320;18.042;2023-11-21T09:22:04;101835.34;;;-0.12;100.00
25658;BME280;13517;59.320;18.042;2023-11-21T09:24:31;101877.78;;;0.16;100.00
25658;BME280;13517;59.320;18.042;2023-11-21T09:26:56;101922.00;;;0.42;100.00
25658;BME280;13517;59.320;18.042;2023-11-21T09:29:22;101904.34;;;0.26;100.00
25658;BME280;13517;59.320;18.042;2023-11-21T09:31:47;101843.25;;;0.02;100.00
25658;BME280;13517;59.320;18.042;2023-11-21T09:34:13;101840.59;;;0.06;100.00
25658;BME280;13517;59.320;18.042;2023-11-21T09:36:40;101896.25;;;0.56;100.00
25658;BME280;13517;59.320;18.042;2023-11-21T09:39:06;101931.63;;;0.80;100.00
25658;BME280;13517;59.320;18.042;2023-11-21T09:41:43;101932.50;;;0.82;100.00
25658;BME280;13517;59.320;18.042;2023-11-21T09:44:13;101885.59;;;0.59;100.00
25658;BME280;13517;59.320;18.042;2023-11-21T09:46:42;101917.47;;;0.67;100.00
25658;BME280;13517;59.320;18.042;2023-11-21T09:49:11;101915.69;;;0.74;100.00
25658;BME280;13517;59.320;18.042;2023-11-21T09:51:43;101900.63;;;0.63;100.00
25658;BME280;13517;59.320;18.042;2023-11-21T09:54:10;101944.00;;;0.86;100.00
25658;BME280;13517;59.320;18.042;2023-11-21T09:56:37;101921.91;;;0.73;100.00
25658;BME280;13517;59.320;18.042;2023-11-21T09:59:03;101940.47;;;0.85;100.00
25658;BME280;13517;59.320;18.042;2023-11-21T10:01:33;101916.59;;;0.73;100.00
25658;BME280;13517;59.320;18.042;2023-11-21T10:03:58;101946.66;;;0.86;100.00
25658;BME280;13517;59.320;18.042;2023-11-21T10:06:25;101924.59;;;0.68;100.00
25658;BME280;13517;59.320;18.042;2023-11-21T10:08:53;101921.91;;;0.66;100.00
25658;BME280;13517;59.320;18.042;2023-11-21T10:11:21;101915.72;;;0.60;100.00
25658;BME280;13517;59.320;18.042;2023-11-21T10:13:52;101925.44;;;0.68;100.00
25658;BME280;13517;59.320;18.042;2023-11-21T10:16:19;101967.00;;;1.01;100.00
25658;BME280;13517;59.320;18.042;2023-11-21T10:18:48;101944.91;;;0.86;100.00
25658;BME280;13517;59.320;18.042;2023-11-21T10:21:14;101944.91;;;0.85;100.00
25658;BME280;13517;59.320;18.042;2023-11-21T10:23:40;101945.78;;;0.82;100.00
25658;BME280;13517;59.320;18.042;2023-11-21T10:26:07;101915.72;;;0.64;100.00
25658;BME280;13517;59.320;18.042;2023-11-21T10:28:37;101914.00;;;0.51;100.00
25658;BME280;13517;59.320;18.042;2023-11-21T10:31:06;101951.09;;;0.87;100.00
25658;BME280;13517;59.320;18.042;2023-11-21T10:33:32;101957.34;;;0.83;100.00
25658;BME280;13517;59.320;18.042;2023-11-21T10:35:58;101936.09;;;0.67;100.00
25658;BME280;13517;59.320;18.042;2023-11-21T10:38:24;101912.25;;;0.42;100.00
25658;BME280;13517;59.320;18.042;2023-11-21T10:40:54;101867.16;;;0.08;100.00
25658;BME280;13517;59.320;18.042;2023-11-21T10:43:24;101955.66;;;0.52;100.00
25658;BME280;13517;59.320;18.042;2023-11-21T10:45:50;101966.28;;;0.55;100.00
25658;BME280;13517;59.320;18.042;2023-11-21T10:48:15;101984.88;;;0.63;100.00
25658;BME280;13517;59.320;18.042;2023-11-21T10:50:42;101945.91;;;0.51;100.00
25658;BME280;13517;59.320;18.042;2023-11-21T10:53:09;101927.28;;;0.48;100.00
25658;BME280;13517;59.320;18.042;2023-11-21T10:55:37;101940.59;;;0.56;100.00
25658;BME280;13517;59.320;18.042;2023-11-21T10:58:03;101984.78;;;0.81;100.00
25658;BME280;13517;59.320;18.042;2023-11-21T11:00:30;101986.56;;;0.84;100.00
25658;BME280;13517;59.320;18.042;2023-11-21T11:02:56;101982.16;;;0.78;100.00
25658;BME280;13517;59.320;18.042;2023-11-21T11:05:25;101964.44;;;0.71;100.00
25658;BME280;13517;59.320;18.042;2023-11-21T11:07:52;101926.41;;;0.49;100.00
25658;BME280;13517;59.320;18.042;2023-11-21T11:10:23;101985.75;;;0.66;100.00
25658;BME280;13517;59.320;18.042;2023-11-21T11:12:51;101902.56;;;0.21;100.00
25658;BME280;13517;59.320;18.042;2023-11-21T11:15:17;101911.41;;;0.29;100.00
25658;BME280;13517;59.320;18.042;2023-11-21T11:17:45;101994.56;;;0.79;100.00
25658;BME280;13517;59.320;18.042;2023-11-21T11:20:12;102000.75;;;0.83;100.00
25658;BME280;13517;59.320;18.042;2023-11-21T11:23:07;101995.44;;;0.81;100.00
25658;BME280;13517;59.320;18.042;2023-11-21T11:28:18;101975.94;;;0.78;100.00
25658;BME280;13517;59.320;18.042;2023-11-21T11:31:26;101999.84;;;0.93;100.00
25658;BME280;13517;59.320;18.042;2023-11-21T11:34:04;102003.38;;;0.95;100.00
25658;BME280;13517;59.320;18.042;2023-11-21T11:36:37;102012.25;;;0.98;100.00
25658;BME280;13517;59.320;18.042;2023-11-21T11:42:02;102017.59;;;0.88;100.00
25658;BME280;13517;59.320;18.042;2023-11-21T11:52:47;102019.41;;;0.85;100.00
25658;BME280;13517;59.320;18.042;2023-11-21T11:55:14;102030.88;;;0.91;100.00
25658;BME280;13517;59.320;18.042;2023-11-21T11:57:43;102017.66;;;0.70;100.00
25658;BME280;13517;59.320;18.042;2023-11-21T12:00:12;102035.38;;;0.78;100.00
25658;BME280;13517;59.320;18.042;2023-11-21T12:02:54;102042.47;;;0.79;100.00
25658;BME280;13517;59.320;18.042;2023-11-21T12:05:22;102032.75;;;0.67;100.00
25658;BME280;13517;59.320;18.042;2023-11-21T12:07:55;102041.56;;;0.74;100.00
25658;BME280;13517;59.320;18.042;2023-11-21T12:10:26;102047.81;;;0.72;100.00
25658;BME280;13517;59.320;18.042;2023-11-21T12:12:57;102049.56;;;0.76;100.00
25658;BME280;13517;59.320;18.042;2023-11-21T12:15:23;101941.56;;;0.16;100.00
25658;BME280;13517;59.320;18.042;2023-11-21T12:17:49;101996.44;;;0.45;100.00
25658;BME280;13517;59.320;18.042;2023-11-21T12:20:19;101981.38;;;0.42;100.00
25658;BME280;13517;59.320;18.042;2023-11-21T12:22:49;102051.31;;;0.85;100.00
25658;BME280;13517;59.320;18.042;2023-11-21T12:25:25;102058.41;;;0.84;100.00
25658;BME280;13517;59.320;18.042;2023-11-21T12:27:54;102039.81;;;0.75;100.00
25658;BME280;13517;59.320;18.042;2023-11-21T12:30:22;102056.66;;;0.80;100.00
25658;BME280;13517;59.320;18.042;2023-11-21T12:32:49;102049.56;;;0.74;100.00
25658;BME280;13517;59.320;18.042;2023-11-21T12:35:17;101990.22;;;0.44;100.00
25658;BME280;13517;59.320;18.042;2023-11-21T12:37:45;102003.56;;;0.43;100.00
25658;BME280;13517;59.320;18.042;2023-11-21T12:40:12;102064.66;;;0.69;100.00
25658;BME280;13517;59.320;18.042;2023-11-21T12:42:47;102053.19;;;0.44;100.00
25658;BME280;13517;59.320;18.042;2023-11-21T12:48:02;102088.59;;;0.27;100.00
25658;BME280;13517;59.320;18.042;2023-11-21T12:50:33;102044.31;;;0.01;100.00